sensor_id;sensor_type;location;lat;lon;timestamp;temperature;humidity
9305;DHT22;4690;52.422;13.486;2022-08-18T00:04:38;23.20;99.90
9305;DHT22;4690;52.422;13.486;2022-08-18T00:07:07;23.10;99.90
9305;DHT22;4690;52.422;13.486;2022-08-18T00:09:36;23.20;99.90
9305;DHT22;4690;52.422;13.486;2022-08-18T00:12:07;23.20;99.90
9305;DHT22;4690;52.422;13.486;2022-08-18T00:14:37;23.20;99.90
9305;DHT22;4690;52.422;13.486;2022-08-18T00:17:03;23.10;99.90
9305;DHT22;4690;52.422;13.486;2022-08-18T00:19:29;23.20;99.90
9305;DHT22;4690;52.422;13.486;2022-08-18T00:21:55;23.10;99.90
9305;DHT22;4690;52.422;13.486;2022-08-18T00:24:20;23.10;99.90
9305;DHT22;4690;52.422;13.486;2022-08-18T00:26:46;23.10;99.90
9305;DHT22;4690;52.422;13.486;2022-08-18T00:29:13;23.10;99.90
9305;DHT22;4690;52.422;13.486;2022-08-18T00:31:38;23.20;99.90
9305;DHT22;4690;52.422;13.486;2022-08-18T00:34:04;23.10;99.90
9305;DHT22;4690;52.422;13.486;2022-08-18T00:36:31;23.10;99.90
9305;DHT22;4690;52.422;13.486;2022-08-18T00:38:59;23.10;99.90
9305;DHT22;4690;52.422;13.486;2022-08-18T00:41:26;23.10;99.90
9305;DHT22;4690;52.422;13.486;2022-08-18T00:43:53;23.00;99.90
9305;DHT22;4690;52.422;13.486;2022-08-18T00:46:25;23.00;99.90
9305;DHT22;4690;52.422;13.486;2022-08-18T00:48:54;23.00;99.90
9305;DHT22;4690;52.422;13.486;2022-08-18T00:51:28;23.00;99.90
9305;DHT22;4690;52.422;13.486;2022-08-18T00:54:20;22.90;99.90
9305;DHT22;4690;52.422;13.486;2022-08-18T00:56:54;22.90;99.90
9305;DHT22;4690;52.422;13.486;2022-08-18T00:59:44;22.80;99.90
9305;DHT22;4690;52.422;13.486;2022-08-18T01:02:22;22.80;99.90
9305;DHT22;4690;52.422;13.486;2022-08-18T01:04:57;22.70;99.90
9305;DHT22;4690;52.422;13.486;2022-08-18T01:07:30;22.60;99.90
9305;DHT22;4690;52.422;13.486;2022-08-18T01:10:00;22.60;99.90
9305;DHT22;4690;52.422;13.486;2022-08-18T01:12:30;22.60;99.90
9305;DHT22;4690;52.422;13.486;2022-08-18T01:14:56;22.50;99.90
9305;DHT22;4690;52.422;13.486;2022-08-18T01:17:24;22.50;99.90
9305;DHT22;4690;52.422;13.486;2022-08-18T01:20:14;22.40;99.90
9305;DHT22;4690;52.422;13.486;2022-08-18T01:23:13;22.40;99.90
9305;DHT22;4690;52.422;13.486;2022-08-18T01:25:41;22.30;99.90
9305;DHT22;4690;52.422;13.486;2022-08-18T01:28:40;22.30;99.90
9305;DHT22;4690;52.422;13.486;2022-08-18T01:31:08;22.30;99.90
9305;DHT22;4690;52.422;13.486;2022-08-18T01:33:37;22.20;99.90
9305;DHT22;4690;52.422;13.486;2022-08-18T01:36:17;22.20;99.90
9305;DHT22;4690;52.422;13.486;2022-08-18T01:38:47;22.10;99.90
9305;DHT22;4690;52.422;13.486;2022-08-18T01:41:17;22.10;99.90
9305;DHT22;4690;52.422;13.486;2022-08-18T01:43:45;22.00;99.90
9305;DHT22;4690;52.422;13.486;2022-08-18T01:46:12;22.00;99.90
9305;DHT22;4690;52.422;13.486;2022-08-18T01:48:44;22.00;99.90
9305;DHT22;4690;52.422;13.486;2022-08-18T01:51:14;21.90;99.90
9305;DHT22;4690;52.422;13.486;2022-08-18T01:53:41;21.90;99.90
9305;DHT22;4690;52.422;13.486;2022-08-18T01:56:07;21.80;99.90
9305;DHT22;4690;52.422;13.486;2022-08-18T01:58:34;21.80;99.90
9305;DHT22;4690;52.422;13.486;2022-08-18T02:01:01;21.80;99.90
9305;DHT22;4690;52.422;13.486;2022-08-18T02:03:36;21.80;99.90
9305;DHT22;4690;52.422;13.486;2022-08-18T02:06:09;21.70;99.90
9305;DHT22;4690;52.422;13.486;2022-08-18T02:08:37;21.70;99.90
9305;DHT22;4690;52.422;13.486;2022-08-18T02:11:04;21.70;99.90
9305;DHT22;4690;52.422;13.486;2022-08-18T02:13:32;21.60;99.90
9305;DHT22;4690;52.422;13.486;2022-08-18T02:15:59;21.60;99.90
9305;DHT22;4690;52.422;13.486;2022-08-18T02:18:28;21.60;99.90
9305;DHT22;4690;52.422;13.486;2022-08-18T02:20:57;21.60;99.90
9305;DHT22;4690;52.422;13.486;2022-08-18T02:23:30;21.60;99.90
9305;DHT22;4690;52.422;13.486;2022-08-18T02:25:55;21.50;99.90
9305;DHT22;4690;52.422;13.486;2022-08-18T02:28:21;21.50;99.90
9305;DHT22;4690;52.422;13.486;2022-08-18T02:30:47;21.50;99.90
9305;DHT22;4690;52.422;13.486;2022-08-18T02:33:13;21.50;99.90
9305;DHT22;4690;52.422;13.486;2022-08-18T02:35:39;21.50;99.90
9305;DHT22;4690;52.422;13.486;2022-08-18T02:38:08;21.50;99.90
9305;DHT22;4690;52.422;13.486;2022-08-18T02:40:34;21.50;99.90
9305;DHT22;4690;52.422;13.486;2022-08-18T02:43:08;21.50;99.90
9305;DHT22;4690;52.422;13.486;2022-08-18T02:45:36;21.50;99.90
9305;DHT22;4690;52.422;13.486;2022-08-18T02:48:02;21.40;99.90
9305;DHT22;4690;52.422;13.486;2022-08-18T02:50:28;21.40;99.90
9305;DHT22;4690;52.422;13.486;2022-08-18T02:52:54;21.40;99.90
9305;DHT22;4690;52.422;13.486;2022-08-18T02:55:20;21.40;99.90
9305;DHT22;4690;52.422;13.486;2022-08-18T02:57:47;21.40;99.90
9305;DHT22;4690;52.422;13.486;2022-08-18T03:00:15;21.40;99.90
9305;DHT22;4690;52.422;13.486;2022-08-18T03:02:46;21.40;99.90
9305;DHT22;4690;52.422;13.486;2022-08-18T03:05:14;21.30;99.90
9305;DHT22;4690;52.422;13.486;2022-08-18T03:07:40;21.30;99.90
9305;DHT22;4690;52.422;13.486;2022-08-18T03:10:06;21.20;99.90
9305;DHT22;4690;52.422;13.486;2022-08-18T03:12:32;21.20;99.90
9305;DHT22;4690;52.422;13.486;2022-08-18T03:14:58;21.20;99.90
9305;DHT22;4690;52.422;13.486;2022-08-18T03:17:26;21.20;99.90
9305;DHT22;4690;52.422;13.486;2022-08-18T03:19:52;21.20;99.90
9305;DHT22;4690;52.422;13.486;2022-08-18T03:22:19;21.10;99.90
9305;DHT22;4690;52.422;13.486;2022-08-18T03:24:44;21.00;99.90
9305;DHT22;4690;52.422;13.486;2022-08-18T03:27:10;21.00;99.90
9305;DHT22;4690;52.422;13.486;2022-08-18T03:29:37;21.00;99.90
9305;DHT22;4690;52.422;13.486;2022-08-18T03:32:05;20.90;99.90
9305;DHT22;4690;52.422;13.486;2022-08-18T03:34:32;20.90;99.90
9305;DHT22;4690;52.422;13.486;2022-08-18T03:36:58;20.90;99.90
9305;DHT22;4690;52.422;13.486;2022-08-18T03:39:25;20.90;99.90
9305;DHT22;4690;52.422;13.486;2022-08-18T03:41:52;20.90;99.90
9305;DHT22;4690;52.422;13.486;2022-08-18T03:44:21;20.80;99.90
9305;DHT22;4690;52.422;13.486;2022-08-18T03:46:48;20.80;99.90
9305;DHT22;4690;52.422;13.486;2022-08-18T03:49:15;20.80;99.90
9305;DHT22;4690;52.422;13.486;2022-08-18T03:51:43;20.70;99.90
9305;DHT22;4690;52.422;13.486;2022-08-18T03:54:13;20.70;99.90
9305;DHT22;4690;52.422;13.486;2022-08-18T03:56:42;20.70;99.90
9305;DHT22;4690;52.422;13.486;2022-08-18T03:59:27;20.60;99.90
9305;DHT22;4690;52.422;13.486;2022-08-18T04:01:56;20.60;99.90
9305;DHT22;4690;52.422;13.486;2022-08-18T04:04:26;20.60;99.90
9305;DHT22;4690;52.422;13.486;2022-08-18T04:06:57;20.50;99.90
9305;DHT22;4690;52.422;13.486;2022-08-18T04:09:28;20.60;99.90
9305;DHT22;4690;52.422;13.486;2022-08-18T04:11:56;20.50;99.90
9305;DHT22;4690;52.422;13.486;2022-08-18T04:14:25;20.50;99.90
9305;DHT22;4690;52.422;13.486;2022-08-18T04:16:56;20.50;99.90
9305;DHT22;4690;52.422;13.486;2022-08-18T04:19:23;20.50;99.90
9305;DHT22;4690;52.422;13.486;2022-08-18T04:21:51;20.50;99.90
9305;DHT22;4690;52.422;13.486;2022-08-18T04:24:17;20.40;99.90
9305;DHT22;4690;52.422;13.486;2022-08-18T04:26:47;20.40;99.90
9305;DHT22;4690;52.422;13.486;2022-08-18T04:29:15;20.50;99.90
9305;DHT22;4690;52.422;13.486;2022-08-18T04:31:44;20.50;99.90
9305;DHT22;4690;52.422;13.486;2022-08-18T04:34:10;20.50;99.90
9305;DHT22;4690;52.422;13.486;2022-08-18T04:36:36;20.50;99.90
9305;DHT22;4690;52.422;13.486;2022-08-18T04:39:05;20.50;99.90
9305;DHT22;4690;52.422;13.486;2022-08-18T04:41:32;20.60;99.90
9305;DHT22;4690;52.422;13.486;2022-08-18T04:44:02;20.60;99.90
9305;DHT22;4690;52.422;13.486;2022-08-18T04:46:38;20.70;99.90
9305;DHT22;4690;52.422;13.486;2022-08-18T04:49:06;20.70;99.90
9305;DHT22;4690;52.422;13.486;2022-08-18T04:51:34;20.80;99.90
9305;DHT22;4690;52.422;13.486;2022-08-18T04:54:00;20.80;99.90
9305;DHT22;4690;52.422;13.486;2022-08-18T04:56:29;20.80;99.90
9305;DHT22;4690;52.422;13.486;2022-08-18T04:59:05;20.80;99.90
9305;DHT22;4690;52.422;13.486;2022-08-18T05:01:44;20.90;99.90
9305;DHT22;4690;52.422;13.486;2022-08-18T05:04:13;20.90;99.90
9305;DHT22;4690;52.422;13.486;2022-08-18T05:06:41;21.00;99.90
9305;DHT22;4690;52.422;13.486;2022-08-18T05:09:09;21.00;99.90
9305;DHT22;4690;52.422;13.486;2022-08-18T05:11:37;21.10;99.90
9305;DHT22;4690;52.422;13.486;2022-08-18T05:14:06;21.10;99.90
9305;DHT22;4690;52.422;13.486;2022-08-18T05:16:34;21.10;99.90
9305;DHT22;4690;52.422;13.486;2022-08-18T05:19:09;21.20;99.90
9305;DHT22;4690;52.422;13.486;2022-08-18T05:21:39;21.20;99.90
9305;DHT22;4690;52.422;13.486;2022-08-18T05:24:08;21.30;99.90
9305;DHT22;4690;52.422;13.486;2022-08-18T05:26:35;21.30;99.90
9305;DHT22;4690;52.422;13.486;2022-08-18T05:29:01;21.30;99.90
9305;DHT22;4690;52.422;13.486;2022-08-18T05:31:29;21.40;99.90
9305;DHT22;4690;52.422;13.486;2022-08-18T05:33:55;21.40;99.90
9305;DHT22;4690;52.422;13.486;2022-08-18T05:42:12;21.50;99.90
9305;DHT22;4690;52.422;13.486;2022-08-18T05:44:48;21.60;99.90
9305;DHT22;4690;52.422;13.486;2022-08-18T05:47:21;21.60;99.90
9305;DHT22;4690;52.422;13.486;2022-08-18T05:49:48;21.80;99.90
9305;DHT22;4690;52.422;13.486;2022-08-18T05:55:06;21.90;99.90
9305;DHT22;4690;52.422;13.486;2022-08-18T05:58:05;22.00;99.90
9305;DHT22;4690;52.422;13.486;2022-08-18T06:00:37;22.10;99.90
9305;DHT22;4690;52.422;13.486;2022-08-18T06:03:14;22.10;99.90
9305;DHT22;4690;52.422;13.486;2022-08-18T06:06:07;22.20;99.90
9305;DHT22;4690;52.422;13.486;2022-08-18T06:08:41;22.20;99.90
9305;DHT22;4690;52.422;13.486;2022-08-18T06:11:10;22.30;99.90
9305;DHT22;4690;52.422;13.486;2022-08-18T06:13:39;22.30;99.90
9305;DHT22;4690;52.422;13.486;2022-08-18T06:16:16;22.40;99.90
9305;DHT22;4690;52.422;13.486;2022-08-18T06:18:58;22.60;99.90
9305;DHT22;4690;52.422;13.486;2022-08-18T06:22:02;22.70;99.90
9305;DHT22;4690;52.422;13.486;2022-08-18T06:28:14;23.10;99.90
9305;DHT22;4690;52.422;13.486;2022-08-18T06:39:31;23.70;99.90
9305;DHT22;4690;52.422;13.486;2022-08-18T06:42:06;23.80;99.90
9305;DHT22;4690;52.422;13.486;2022-08-18T06:44:47;24.00;99.90
9305;DHT22;4690;52.422;13.486;2022-08-18T06:47:22;24.20;99.90
9305;DHT22;4690;52.422;13.486;2022-08-18T06:52:30;24.40;99.90
9305;DHT22;4690;52.422;13.486;2022-08-18T06:55:08;24.50;99.90
9305;DHT22;4690;52.422;13.486;2022-08-18T06:57:55;24.50;99.90
9305;DHT22;4690;52.422;13.486;2022-08-18T07:00:26;24.50;99.90
9305;DHT22;4690;52.422;13.486;2022-08-18T07:03:05;24.50;99.90
9305;DHT22;4690;52.422;13.486;2022-08-18T07:05:38;24.50;99.90
9305;DHT22;4690;52.422;13.486;2022-08-18T07:08:42;24.60;99.90
9305;DHT22;4690;52.422;13.486;2022-08-18T07:11:22;24.70;99.90
9305;DHT22;4690;52.422;13.486;2022-08-18T07:13:56;24.90;99.90
9305;DHT22;4690;52.422;13.486;2022-08-18T07:16:45;25.00;99.90
9305;DHT22;4690;52.422;13.486;2022-08-18T07:19:17;25.20;99.90
9305;DHT22;4690;52.422;13.486;2022-08-18T07:22:01;25.40;99.90
9305;DHT22;4690;52.422;13.486;2022-08-18T07:24:33;25.30;99.90
9305;DHT22;4690;52.422;13.486;2022-08-18T07:27:08;25.20;99.90
9305;DHT22;4690;52.422;13.486;2022-08-18T07:30:05;25.20;99.90
9305;DHT22;4690;52.422;13.486;2022-08-18T07:33:01;25.20;99.90
9305;DHT22;4690;52.422;13.486;2022-08-18T07:35:35;25.30;99.90
9305;DHT22;4690;52.422;13.486;2022-08-18T07:38:22;25.30;99.90
9305;DHT22;4690;52.422;13.486;2022-08-18T07:41:07;25.30;99.90
9305;DHT22;4690;52.422;13.486;2022-08-18T07:43:57;25.30;99.90
9305;DHT22;4690;52.422;13.486;2022-08-18T07:49:33;25.20;99.90
9305;DHT22;4690;52.422;13.486;2022-08-18T07:52:10;25.30;99.90
9305;DHT22;4690;52.422;13.486;2022-08-18T07:54:58;25.30;99.90
9305;DHT22;4690;52.422;13.486;2022-08-18T08:00:24;25.30;99.90
9305;DHT22;4690;52.422;13.486;2022-08-18T08:06:17;25.20;99.90
9305;DHT22;4690;52.422;13.486;2022-08-18T08:14:46;25.50;99.90
9305;DHT22;4690;52.422;13.486;2022-08-18T08:20:32;25.60;99.90
9305;DHT22;4690;52.422;13.486;2022-08-18T08:23:23;25.70;99.90
9305;DHT22;4690;52.422;13.486;2022-08-18T08:32:02;25.90;99.90
9305;DHT22;4690;52.422;13.486;2022-08-18T08:34:40;26.00;99.90
9305;DHT22;4690;52.422;13.486;2022-08-18T08:40:17;26.20;99.90
9305;DHT22;4690;52.422;13.486;2022-08-18T08:53:30;27.30;99.90
9305;DHT22;4690;52.422;13.486;2022-08-18T08:56:07;27.70;99.90
9305;DHT22;4690;52.422;13.486;2022-08-18T08:58:51;27.90;99.90
9305;DHT22;4690;52.422;13.486;2022-08-18T09:04:45;28.00;99.90
9305;DHT22;4690;52.422;13.486;2022-08-18T09:13:11;28.60;99.90
9305;DHT22;4690;52.422;13.486;2022-08-18T09:22:50;29.40;99.90
9305;DHT22;4690;52.422;13.486;2022-08-18T09:36:04;30.40;99.90
9305;DHT22;4690;52.422;13.486;2022-08-18T09:38:37;30.20;99.90
9305;DHT22;4690;52.422;13.486;2022-08-18T09:41:48;29.80;99.90
9305;DHT22;4690;52.422;13.486;2022-08-18T09:57:42;30.60;99.90
9305;DHT22;4690;52.422;13.486;2022-08-18T10:13:20;30.60;99.90
9305;DHT22;4690;52.422;13.486;2022-08-18T10:16:15;30.60;99.90
9305;DHT22;4690;52.422;13.486;2022-08-18T10:21:24;31.60;99.90
9305;DHT22;4690;52.422;13.486;2022-08-18T10:37:26;32.50;99.90
9305;DHT22;4690;52.422;13.486;2022-08-18T10:40:00;32.30;99.90
9305;DHT22;4690;52.422;13.486;2022-08-18T10:42:41;32.40;99.90
9305;DHT22;4690;52.422;13.486;2022-08-18T10:45:27;32.60;99.90
9305;DHT22;4690;52.422;13.486;2022-08-18T10:48:06;32.40;99.90
9305;DHT22;4690;52.422;13.486;2022-08-18T10:50:51;32.60;99.90
9305;DHT22;4690;52.422;13.486;2022-08-18T11:04:40;32.90;99.90
9305;DHT22;4690;52.422;13.486;2022-08-18T11:07:12;33.20;99.90
9305;DHT22;4690;52.422;13.486;2022-08-18T11:09:44;33.00;99.90
9305;DHT22;4690;52.422;13.486;2022-08-18T11:12:15;33.20;99.90
9305;DHT22;4690;52.422;13.486;2022-08-18T11:15:16;33.50;99.90
9305;DHT22;4690;52.422;13.486;2022-08-18T11:24:17;33.80;99.90
9305;DHT22;4690;52.422;13.486;2022-08-18T11:29:28;33.90;99.90
9305;DHT22;4690;52.422;13.486;2022-08-18T11:32:18;33.80;99.90
9305;DHT22;4690;52.422;13.486;2022-08-18T11:35:29;33.50;99.90
9305;DHT22;4690;52.422;13.486;2022-08-18T11:37:45;33.50;99.90
9305;DHT22;4690;52.422;13.486;2022-08-18T11:45:48;33.00;99.90
9305;DHT22;4690;52.422;13.486;2022-08-18T11:48:42;33.20;99.90
9305;DHT22;4690;52.422;13.486;2022-08-18T12:04:43;33.40;99.90
9305;DHT22;4690;52.422;13.486;2022-08-18T12:07:24;33.70;99.90
9305;DHT22;4690;52.422;13.486;2022-08-18T12:10:25;33.60;99.90
9305;DHT22;4690;52.422;13.486;2022-08-18T12:12:53;33.60;99.90
9305;DHT22;4690;52.422;13.486;2022-08-18T12:15:23;33.30;99.90
9305;DHT22;4690;52.422;13.486;2022-08-18T12:17:51;33.20;99.90
9305;DHT22;4690;52.422;13.486;2022-08-18T12:20:17;33.20;99.90
9305;DHT22;4690;52.422;13.486;2022-08-18T12:22:44;33.20;99.90
9305;DHT22;4690;52.422;13.486;2022-08-18T12:25:14;33.20;99.90
9305;DHT22;4690;52.422;13.486;2022-08-18T12:27:41;33.30;99.90
9305;DHT22;4690;52.422;13.486;2022-08-18T12:30:09;33.60;99.90
9305;DHT22;4690;52.422;13.486;2022-08-18T12:32:37;33.80;99.90
9305;DHT22;4690;52.422;13.486;2022-08-18T12:35:05;34.10;99.90
9305;DHT22;4690;52.422;13.486;2022-08-18T12:37:32;34.30;99.90
9305;DHT22;4690;52.422;13.486;2022-08-18T12:39:59;34.40;99.90
9305;DHT22;4690;52.422;13.486;2022-08-18T12:42:25;34.60;99.90
9305;DHT22;4690;52.422;13.486;2022-08-18T12:44:51;34.60;99.90
9305;DHT22;4690;52.422;13.486;2022-08-18T12:47:21;34.70;99.90
9305;DHT22;4690;52.422;13.486;2022-08-18T12:49:50;34.80;99.90
9305;DHT22;4690;52.422;13.486;2022-08-18T12:52:17;34.60;99.90
9305;DHT22;4690;52.422;13.486;2022-08-18T12:54:44;34.80;99.90
9305;DHT22;4690;52.422;13.486;2022-08-18T12:57:25;34.90;99.90
9305;DHT22;4690;52.422;13.486;2022-08-18T12:59:52;34.90;99.90
9305;DHT22;4690;52.422;13.486;2022-08-18T13:02:19;34.70;99.90
9305;DHT22;4690;52.422;13.486;2022-08-18T13:04:46;34.40;99.90
9305;DHT22;4690;52.422;13.486;2022-08-18T13:07:12;34.30;99.90
9305;DHT22;4690;52.422;13.486;2022-08-18T13:09:41;34.30;99.90
9305;DHT22;4690;52.422;13.486;2022-08-18T13:12:07;34.40;99.90
9305;DHT22;4690;52.422;13.486;2022-08-18T13:14:34;34.30;99.90
9305;DHT22;4690;52.422;13.486;2022-08-18T13:17:00;34.10;99.90
9305;DHT22;4690;52.422;13.486;2022-08-18T13:19:27;34.10;99.90
9305;DHT22;4690;52.422;13.486;2022-08-18T13:21:53;34.00;99.90
9305;DHT22;4690;52.422;13.486;2022-08-18T13:24:19;33.80;99.90
9305;DHT22;4690;52.422;13.486;2022-08-18T13:26:46;33.70;99.90
9305;DHT22;4690;52.422;13.486;2022-08-18T13:29:14;33.70;99.90
9305;DHT22;4690;52.422;13.486;2022-08-18T13:31:42;33.60;99.90
9305;DHT22;4690;52.422;13.486;2022-08-18T13:34:09;33.40;99.90
9305;DHT22;4690;52.422;13.486;2022-08-18T13:36:35;33.40;99.90
9305;DHT22;4690;52.422;13.486;2022-08-18T13:39:18;33.50;99.90
9305;DHT22;4690;52.422;13.486;2022-08-18T13:41:48;33.40;99.90
9305;DHT22;4690;52.422;13.486;2022-08-18T13:44:17;33.40;99.90
9305;DHT22;4690;52.422;13.486;2022-08-18T13:46:45;33.20;99.90
9305;DHT22;4690;52.422;13.486;2022-08-18T13:49:12;33.10;99.90
9305;DHT22;4690;52.422;13.486;2022-08-18T13:51:43;33.10;99.90
9305;DHT22;4690;52.422;13.486;2022-08-18T13:54:20;33.20;99.90
9305;DHT22;4690;52.422;13.486;2022-08-18T13:56:48;33.00;99.90
9305;DHT22;4690;52.422;13.486;2022-08-18T13:59:15;33.00;99.90
9305;DHT22;4690;52.422;13.486;2022-08-18T14:01:42;32.80;99.90
9305;DHT22;4690;52.422;13.486;2022-08-18T14:04:09;32.70;99.90
9305;DHT22;4690;52.422;13.486;2022-08-18T14:06:37;32.70;99.90
9305;DHT22;4690;52.422;13.486;2022-08-18T14:09:04;32.70;99.90
9305;DHT22;4690;52.422;13.486;2022-08-18T14:11:30;32.70;99.90
9305;DHT22;4690;52.422;13.486;2022-08-18T14:13:58;32.50;99.90
9305;DHT22;4690;52.422;13.486;2022-08-18T14:16:25;32.50;99.90
9305;DHT22;4690;52.422;13.486;2022-08-18T14:18:52;32.40;99.90
9305;DHT22;4690;52.422;13.486;2022-08-18T14:21:55;32.40;99.90
9305;DHT22;4690;52.422;13.486;2022-08-18T14:24:40;32.50;99.90
9305;DHT22;4690;52.422;13.486;2022-08-18T14:27:35;32.60;99.90
9305;DHT22;4690;52.422;13.486;2022-08-18T14:30:11;32.60;99.90
9305;DHT22;4690;52.422;13.486;2022-08-18T14:32:39;32.60;99.90
9305;DHT22;4690;52.422;13.486;2022-08-18T14:35:08;32.70;99.90
9305;DHT22;4690;52.422;13.486;2022-08-18T14:37:35;32.70;99.90
9305;DHT22;4690;52.422;13.486;2022-08-18T14:40:01;32.70;99.90
9305;DHT22;4690;52.422;13.486;2022-08-18T14:42:28;32.90;99.90
9305;DHT22;4690;52.422;13.486;2022-08-18T14:44:54;32.90;99.90
9305;DHT22;4690;52.422;13.486;2022-08-18T14:47:22;33.00;99.90
9305;DHT22;4690;52.422;13.486;2022-08-18T14:49:54;33.10;99.90
9305;DHT22;4690;52.422;13.486;2022-08-18T14:52:21;32.90;99.90
9305;DHT22;4690;52.422;13.486;2022-08-18T14:54:48;32.90;99.90
9305;DHT22;4690;52.422;13.486;2022-08-18T14:57:16;32.80;99.90
9305;DHT22;4690;52.422;13.486;2022-08-18T14:59:42;32.70;99.90
9305;DHT22;4690;52.422;13.486;2022-08-18T15:02:10;32.70;99.90
9305;DHT22;4690;52.422;13.486;2022-08-18T15:04:37;32.70;99.90
9305;DHT22;4690;52.422;13.486;2022-08-18T15:07:04;32.60;99.90
9305;DHT22;4690;52.422;13.486;2022-08-18T15:09:30;32.60;99.90
9305;DHT22;4690;52.422;13.486;2022-08-18T15:11:57;32.60;99.90
9305;DHT22;4690;52.422;13.486;2022-08-18T15:14:26;32.60;99.90
9305;DHT22;4690;52.422;13.486;2022-08-18T15:16:55;32.60;99.90
9305;DHT22;4690;52.422;13.486;2022-08-18T15:19:23;32.60;99.90
9305;DHT22;4690;52.422;13.486;2022-08-18T15:21:49;32.60;99.90
9305;DHT22;4690;52.422;13.486;2022-08-18T15:24:33;32.40;99.90
9305;DHT22;4690;52.422;13.486;2022-08-18T15:27:21;32.20;99.90
9305;DHT22;4690;52.422;13.486;2022-08-18T15:29:47;32.20;99.90
9305;DHT22;4690;52.422;13.486;2022-08-18T15:32:13;32.10;99.90
9305;DHT22;4690;52.422;13.486;2022-08-18T15:34:39;31.90;99.90
9305;DHT22;4690;52.422;13.486;2022-08-18T15:37:09;31.80;99.90
9305;DHT22;4690;52.422;13.486;2022-08-18T15:39:34;31.80;99.90
9305;DHT22;4690;52.422;13.486;2022-08-18T15:42:08;31.60;99.90
9305;DHT22;4690;52.422;13.486;2022-08-18T15:44:35;31.50;99.90
9305;DHT22;4690;52.422;13.486;2022-08-18T15:47:01;31.50;99.90
9305;DHT22;4690;52.422;13.486;2022-08-18T15:49:29;31.40;99.90
9305;DHT22;4690;52.422;13.486;2022-08-18T15:51:56;31.40;99.90
9305;DHT22;4690;52.422;13.486;2022-08-18T15:54:23;31.50;99.90
9305;DHT22;4690;52.422;13.486;2022-08-18T15:56:48;31.50;99.90
9305;DHT22;4690;52.422;13.486;2022-08-18T15:59:14;31.40;99.90
9305;DHT22;4690;52.422;13.486;2022-08-18T16:01:40;31.30;99.90
9305;DHT22;4690;52.422;13.486;2022-08-18T16:04:06;31.20;99.90
9305;DHT22;4690;52.422;13.486;2022-08-18T16:06:36;31.20;99.90
9305;DHT22;4690;52.422;13.486;2022-08-18T16:09:04;30.60;99.90
9305;DHT22;4690;52.422;13.486;2022-08-18T16:11:30;29.40;99.90
9305;DHT22;4690;52.422;13.486;2022-08-18T16:13:56;28.40;99.90
9305;DHT22;4690;52.422;13.486;2022-08-18T16:16:25;27.50;99.90
9305;DHT22;4690;52.422;13.486;2022-08-18T16:18:51;26.70;99.90
9305;DHT22;4690;52.422;13.486;2022-08-18T16:21:20;25.90;99.90
9305;DHT22;4690;52.422;13.486;2022-08-18T16:23:50;25.00;99.90
9305;DHT22;4690;52.422;13.486;2022-08-18T16:26:19;24.30;99.90
9305;DHT22;4690;52.422;13.486;2022-08-18T16:28:48;23.90;99.90
9305;DHT22;4690;52.422;13.486;2022-08-18T16:31:18;23.80;99.90
9305;DHT22;4690;52.422;13.486;2022-08-18T16:33:50;23.70;99.90
9305;DHT22;4690;52.422;13.486;2022-08-18T16:36:21;23.60;99.90
9305;DHT22;4690;52.422;13.486;2022-08-18T16:38:50;23.60;99.90
9305;DHT22;4690;52.422;13.486;2022-08-18T16:41:18;23.60;99.90
9305;DHT22;4690;52.422;13.486;2022-08-18T16:43:45;23.10;99.90
9305;DHT22;4690;52.422;13.486;2022-08-18T16:46:17;22.70;99.90
9305;DHT22;4690;52.422;13.486;2022-08-18T16:48:50;22.40;99.90
9305;DHT22;4690;52.422;13.486;2022-08-18T16:51:19;22.20;99.90
9305;DHT22;4690;52.422;13.486;2022-08-18T16:53:49;22.10;99.90
9305;DHT22;4690;52.422;13.486;2022-08-18T16:56:19;21.80;99.90
9305;DHT22;4690;52.422;13.486;2022-08-18T16:58:47;21.70;99.90
9305;DHT22;4690;52.422;13.486;2022-08-18T17:01:32;21.70;99.90
9305;DHT22;4690;52.422;13.486;2022-08-18T17:04:19;21.80;99.90
9305;DHT22;4690;52.422;13.486;2022-08-18T17:06:47;21.60;99.90
9305;DHT22;4690;52.422;13.486;2022-08-18T17:09:14;21.60;99.90
9305;DHT22;4690;52.422;13.486;2022-08-18T17:11:41;21.80;99.90
9305;DHT22;4690;52.422;13.486;2022-08-18T17:14:08;21.90;99.90
9305;DHT22;4690;52.422;13.486;2022-08-18T17:16:36;22.00;99.90
9305;DHT22;4690;52.422;13.486;2022-08-18T17:19:03;22.00;99.90
9305;DHT22;4690;52.422;13.486;2022-08-18T17:21:31;22.00;99.90
9305;DHT22;4690;52.422;13.486;2022-08-18T17:24:00;21.80;99.90
9305;DHT22;4690;52.422;13.486;2022-08-18T17:29:09;21.80;99.90
9305;DHT22;4690;52.422;13.486;2022-08-18T17:31:51;21.80;99.90
9305;DHT22;4690;52.422;13.486;2022-08-18T17:34:32;21.80;99.90
9305;DHT22;4690;52.422;13.486;2022-08-18T17:37:07;21.70;99.90
9305;DHT22;4690;52.422;13.486;2022-08-18T17:39:43;21.70;99.90
9305;DHT22;4690;52.422;13.486;2022-08-18T17:42:18;21.80;99.90
9305;DHT22;4690;52.422;13.486;2022-08-18T17:44:56;21.70;99.90
9305;DHT22;4690;52.422;13.486;2022-08-18T17:47:53;21.60;99.90
9305;DHT22;4690;52.422;13.486;2022-08-18T17:51:10;21.60;99.90
9305;DHT22;4690;52.422;13.486;2022-08-18T17:54:22;21.50;99.90
9305;DHT22;4690;52.422;13.486;2022-08-18T17:56:58;21.50;99.90
9305;DHT22;4690;52.422;13.486;2022-08-18T17:59:51;21.50;99.90
9305;DHT22;4690;52.422;13.486;2022-08-18T18:02:26;21.50;99.90
9305;DHT22;4690;52.422;13.486;2022-08-18T18:04:54;21.40;99.90
9305;DHT22;4690;52.422;13.486;2022-08-18T18:07:30;21.30;99.90
9305;DHT22;4690;52.422;13.486;2022-08-18T18:10:07;21.60;99.90
9305;DHT22;4690;52.422;13.486;2022-08-18T18:12:36;21.90;99.90
9305;DHT22;4690;52.422;13.486;2022-08-18T18:15:11;22.20;99.90
9305;DHT22;4690;52.422;13.486;2022-08-18T18:17:40;22.30;99.90
9305;DHT22;4690;52.422;13.486;2022-08-18T18:23:20;22.20;99.90
9305;DHT22;4690;52.422;13.486;2022-08-18T18:25:49;22.30;99.90
9305;DHT22;4690;52.422;13.486;2022-08-18T18:28:29;22.30;99.90
9305;DHT22;4690;52.422;13.486;2022-08-18T18:31:00;22.40;99.90
9305;DHT22;4690;52.422;13.486;2022-08-18T18:33:43;22.40;99.90
9305;DHT22;4690;52.422;13.486;2022-08-18T18:36:09;22.40;99.90
9305;DHT22;4690;52.422;13.486;2022-08-18T18:38:39;22.50;99.90
9305;DHT22;4690;52.422;13.486;2022-08-18T18:43:39;22.40;99.90
9305;DHT22;4690;52.422;13.486;2022-08-18T18:46:27;22.40;99.90
9305;DHT22;4690;52.422;13.486;2022-08-18T18:52:16;22.50;99.90
9305;DHT22;4690;52.422;13.486;2022-08-18T18:55:22;22.50;99.90
9305;DHT22;4690;52.422;13.486;2022-08-18T19:04:35;22.60;99.90
9305;DHT22;4690;52.422;13.486;2022-08-18T19:07:25;22.50;99.90
9305;DHT22;4690;52.422;13.486;2022-08-18T19:10:17;22.50;99.90
9305;DHT22;4690;52.422;13.486;2022-08-18T19:12:55;22.50;99.90
9305;DHT22;4690;52.422;13.486;2022-08-18T19:15:26;22.50;99.90
9305;DHT22;4690;52.422;13.486;2022-08-18T19:18:32;22.50;99.90
9305;DHT22;4690;52.422;13.486;2022-08-18T19:21:06;22.50;99.90
9305;DHT22;4690;52.422;13.486;2022-08-18T19:23:41;22.50;99.90
9305;DHT22;4690;52.422;13.486;2022-08-18T19:26:18;22.50;99.90
9305;DHT22;4690;52.422;13.486;2022-08-18T19:28:55;22.50;99.90
9305;DHT22;4690;52.422;13.486;2022-08-18T19:31:35;22.60;99.90